Airport ICAO


11:56 UTC

25°C

Clear skies


An affordable passengers' Moving Map for your aircraft. Made for the iPad and the iPhone
More information here

LFPB Le Bourget


Paris FRANCE   VFR CAVOK


METAR LFPB 191130Z AUTO 17007KT 130V200 CAVOK 25/12 Q1024 NOSIG 0h26min

TAF LFPB 191100Z 1912/2012 18005KT CAVOK 0h56min





NOTAMS

OPEN